createdAt,value
2023-01-21T00:02:40.001Z,18.55
2023-01-21T00:07:41.722Z,19.08
2023-01-21T00:12:43.433Z,17.67
2023-01-21T00:17:45.173Z,16.60
2023-01-21T00:22:47.177Z,19.70
2023-01-21T00:27:48.922Z,15.57
2023-01-21T00:32:51.814Z,19.83
2023-01-21T00:37:53.727Z,18.67
2023-01-21T00:42:55.480Z,17.55
2023-01-21T00:47:57.257Z,15.23
2023-01-21T00:52:58.970Z,16.52
2023-01-21T00:58:00.678Z,16.02
2023-01-21T01:03:02.586Z,15.75
2023-01-21T01:08:04.370Z,15.45
2023-01-21T01:13:06.079Z,17.00
2023-01-21T01:18:07.797Z,12.50
2023-01-21T01:23:09.532Z,14.63
2023-01-21T01:28:11.243Z,14.68
2023-01-21T01:33:13.024Z,13.57
2023-01-21T01:38:16.720Z,12.55
2023-01-21T01:43:24.677Z,10.77
2023-01-21T01:48:31.205Z,11.95
2023-01-21T01:53:35.494Z,12.83
2023-01-21T01:58:38.566Z,10.40
2023-01-21T02:03:45.729Z,10.55
2023-01-21T02:08:48.170Z,10.10
2023-01-21T02:13:54.337Z,14.10
2023-01-21T02:19:39.186Z,10.65
2023-01-21T02:25:05.797Z,12.07
2023-01-21T02:30:18.397Z,10.20
2023-01-21T02:35:28.337Z,13.45
2023-01-21T02:41:00.354Z,11.38
2023-01-21T02:46:12.974Z,10.65
2023-01-21T02:51:14.816Z,12.63
2023-01-21T02:56:22.225Z,14.07
2023-01-21T03:01:45.890Z,12.13
2023-01-21T03:06:58.730Z,12.18
2023-01-21T03:12:17.170Z,12.90
2023-01-21T03:17:57.766Z,11.25
2023-01-21T03:23:08.353Z,9.73
2023-01-21T03:28:13.506Z,10.65
2023-01-21T03:33:18.076Z,10.32
2023-01-21T03:38:29.609Z,10.70
2023-01-21T03:43:31.885Z,11.40
2023-01-21T03:48:57.284Z,13.73
2023-01-21T03:53:59.707Z,10.32
2023-01-21T03:59:01.460Z,10.75
2023-01-21T04:04:03.279Z,11.75
2023-01-21T04:09:05.726Z,11.13
2023-01-21T04:14:07.515Z,10.68
2023-01-21T04:19:09.466Z,13.82
2023-01-21T04:24:11.243Z,12.00
2023-01-21T04:29:13.182Z,10.38
2023-01-21T04:34:16.672Z,11.43
2023-01-21T04:39:18.458Z,8.30
2023-01-21T04:44:20.273Z,10.93
2023-01-21T04:49:22.093Z,9.70
2023-01-21T04:54:23.818Z,11.13
2023-01-21T04:59:25.584Z,11.75
2023-01-21T05:04:27.409Z,12.18
2023-01-21T05:09:29.226Z,10.88
2023-01-21T05:14:30.986Z,7.28
2023-01-21T05:19:32.694Z,10.52
2023-01-21T05:24:34.463Z,10.68
2023-01-21T05:29:36.255Z,9.38
2023-01-21T05:34:37.958Z,8.60
2023-01-21T05:39:39.698Z,9.38
2023-01-21T05:44:41.431Z,12.48
2023-01-21T05:49:43.227Z,12.30
2023-01-21T05:55:00.648Z,51.45
2023-01-21T06:00:04.550Z,15.63
2023-01-21T06:05:07.159Z,11.80
2023-01-21T06:10:09.545Z,11.00
2023-01-21T06:15:11.644Z,12.93
2023-01-21T06:20:13.496Z,9.02
2023-01-21T06:25:15.255Z,10.00
2023-01-21T06:30:17.425Z,10.27
2023-01-21T06:35:19.428Z,10.68
2023-01-21T06:40:21.188Z,10.90
2023-01-21T06:45:22.933Z,8.82
2023-01-21T06:50:24.788Z,12.77
2023-01-21T06:55:26.513Z,14.75
2023-01-21T07:00:28.281Z,12.85
2023-01-21T07:05:30.142Z,11.13
2023-01-21T07:10:31.941Z,9.63
2023-01-21T07:15:33.740Z,6.25
2023-01-21T07:20:35.636Z,7.88
2023-01-21T07:25:38.247Z,8.00
2023-01-21T07:30:40.008Z,7.97
2023-01-21T07:35:41.767Z,8.27
2023-01-21T07:40:43.650Z,9.63
2023-01-21T07:45:45.924Z,9.20
2023-01-21T07:50:47.796Z,8.00
2023-01-21T07:55:49.553Z,6.93
2023-01-21T08:00:51.322Z,7.97
2023-01-21T08:05:53.108Z,7.72
2023-01-21T08:10:55.369Z,6.35
2023-01-21T08:15:57.619Z,7.38
2023-01-21T08:21:00.130Z,6.68
2023-01-21T08:26:03.355Z,7.43
2023-01-21T08:31:10.367Z,12.02
2023-01-21T08:36:12.254Z,9.48
2023-01-21T08:41:14.032Z,7.05
2023-01-21T08:46:15.767Z,10.75
2023-01-21T08:51:17.686Z,7.55
2023-01-21T08:56:19.653Z,6.25
2023-01-21T09:01:21.471Z,6.82
2023-01-21T09:06:24.592Z,7.32
2023-01-21T09:11:29.112Z,5.40
2023-01-21T09:16:31.827Z,6.38
2023-01-21T09:21:37.836Z,5.20
2023-01-21T09:26:43.965Z,5.65
2023-01-21T09:31:45.791Z,4.72
2023-01-21T09:36:47.603Z,5.85
2023-01-21T09:41:54.256Z,6.93
2023-01-21T09:47:11.045Z,5.80
2023-01-21T09:52:27.492Z,6.40
2023-01-21T09:57:39.294Z,7.13
2023-01-21T10:03:08.403Z,5.20
2023-01-21T10:08:46.124Z,5.45
2023-01-21T10:14:15.777Z,6.13
2023-01-21T10:19:28.329Z,5.60
2023-01-21T10:24:40.603Z,5.68
2023-01-21T10:29:42.834Z,5.47
2023-01-21T10:34:53.737Z,4.65
2023-01-21T10:40:11.997Z,3.85
2023-01-21T10:45:13.760Z,5.15
2023-01-21T10:50:54.492Z,3.95
2023-01-21T10:56:07.584Z,3.33
2023-01-21T11:01:29.238Z,4.55
2023-01-21T11:06:33.362Z,4.28
2023-01-21T11:11:37.321Z,4.28
2023-01-21T11:16:46.391Z,3.97
2023-01-21T11:22:17.303Z,4.32
2023-01-21T11:27:34.857Z,3.78
2023-01-21T11:32:36.629Z,2.90
2023-01-21T11:37:38.576Z,3.50
2023-01-21T11:42:55.026Z,6.18
2023-01-21T11:47:58.122Z,4.82
2023-01-21T11:53:12.956Z,4.47
2023-01-21T11:58:28.285Z,3.47
2023-01-21T12:03:45.689Z,2.92
2023-01-21T12:08:51.190Z,3.65
2023-01-21T12:14:30.670Z,3.75
2023-01-21T12:19:51.311Z,2.80
2023-01-21T12:25:38.325Z,4.22
2023-01-21T12:31:08.178Z,3.70
2023-01-21T12:36:29.859Z,4.03
2023-01-21T12:41:33.778Z,4.93
2023-01-21T12:46:41.447Z,4.45
2023-01-21T12:51:51.336Z,5.45
2023-01-21T12:57:20.453Z,5.45
2023-01-21T13:02:29.534Z,5.30
2023-01-21T13:07:56.541Z,5.95
2023-01-21T13:13:13.942Z,6.20
2023-01-21T13:18:21.351Z,5.68
2023-01-21T13:28:39.374Z,7.53
2023-01-21T13:33:51.790Z,6.13
2023-01-21T13:38:59.379Z,5.55
2023-01-21T13:44:19.837Z,4.82
2023-01-21T13:49:36.833Z,16.23
2023-01-21T13:54:47.706Z,7.53
2023-01-21T13:59:53.830Z,6.97
2023-01-21T14:05:02.485Z,6.22
2023-01-21T14:10:25.437Z,12.48
2023-01-21T14:15:42.304Z,4.57
2023-01-21T14:21:12.169Z,4.20
2023-01-21T14:26:13.845Z,5.25
2023-01-21T14:31:23.480Z,5.85
2023-01-21T14:36:48.642Z,6.32
2023-01-21T14:41:54.497Z,5.72
2023-01-21T14:47:16.859Z,6.43
2023-01-21T14:52:27.231Z,6.85
2023-01-21T14:57:32.568Z,5.72
2023-01-21T15:02:41.352Z,5.93
2023-01-21T15:07:47.170Z,6.40
2023-01-21T15:12:55.055Z,5.47
2023-01-21T15:17:57.854Z,6.18
2023-01-21T15:23:20.021Z,4.07
2023-01-21T15:28:25.027Z,9.27
2023-01-21T15:33:27.937Z,7.60
2023-01-21T15:38:29.849Z,6.80
2023-01-21T15:43:37.509Z,6.95
2023-01-21T15:49:00.546Z,6.57
2023-01-21T15:54:12.988Z,5.82
2023-01-21T15:59:51.506Z,5.63
2023-01-21T16:05:18.321Z,6.07
2023-01-21T16:10:43.838Z,5.85
2023-01-21T16:16:00.714Z,5.93
2023-01-21T16:21:03.851Z,6.73
2023-01-21T16:26:05.798Z,6.10
2023-01-21T16:31:07.627Z,7.22
2023-01-21T16:36:14.047Z,6.50
2023-01-21T16:41:20.533Z,6.32
2023-01-21T16:46:34.318Z,6.10
2023-01-21T16:51:40.380Z,6.18
2023-01-21T16:56:47.620Z,7.22
2023-01-21T17:01:52.057Z,8.90
2023-01-21T17:06:54.212Z,7.97
2023-01-21T17:12:00.433Z,6.78
2023-01-21T17:17:06.825Z,7.85
2023-01-21T17:22:21.689Z,7.55
2023-01-21T17:27:24.690Z,9.50
2023-01-21T17:32:38.004Z,8.30
2023-01-21T17:37:54.655Z,8.27
2023-01-21T17:42:58.169Z,10.25
2023-01-21T17:48:09.498Z,7.13
2023-01-21T17:53:41.192Z,7.75
2023-01-21T17:58:50.826Z,8.35
2023-01-21T18:03:52.568Z,5.93
2023-01-21T18:08:56.435Z,12.35
2023-01-21T18:13:59.455Z,7.15
2023-01-21T18:19:01.285Z,5.55
2023-01-21T18:24:03.160Z,6.03
2023-01-21T18:29:05.224Z,7.03
2023-01-21T18:34:07.407Z,8.20
2023-01-21T18:39:18.467Z,9.38
2023-01-21T18:44:20.251Z,5.70
2023-01-21T18:49:22.967Z,5.82
2023-01-21T18:54:24.839Z,7.82
2023-01-21T18:59:27.641Z,6.65
2023-01-21T19:04:29.519Z,7.45
2023-01-21T19:09:35.747Z,7.03
2023-01-21T19:14:37.495Z,6.60
2023-01-21T19:19:39.990Z,6.68
2023-01-21T19:24:42.065Z,8.43
2023-01-21T19:29:43.859Z,8.20
2023-01-21T19:34:45.601Z,8.38
2023-01-21T19:39:47.348Z,8.40
2023-01-21T19:44:49.087Z,8.23
2023-01-21T19:49:50.901Z,7.93
2023-01-21T19:54:54.919Z,8.85
2023-01-21T19:59:59.540Z,9.68
2023-01-21T20:05:01.300Z,10.10
2023-01-21T20:10:16.444Z,8.60
2023-01-21T20:15:21.865Z,9.80
2023-01-21T20:20:25.941Z,9.27
2023-01-21T20:25:36.598Z,9.02
2023-01-21T20:30:38.353Z,8.63
2023-01-21T20:35:40.342Z,9.82
2023-01-21T20:40:42.187Z,9.13
2023-01-21T20:45:47.459Z,10.48
2023-01-21T20:50:49.319Z,9.75
2023-01-21T20:55:52.688Z,7.97
2023-01-21T21:00:54.601Z,8.38
2023-01-21T21:05:56.366Z,7.97
2023-01-21T21:10:58.105Z,9.43
2023-01-21T21:15:59.840Z,8.68
2023-01-21T21:21:01.669Z,8.13
2023-01-21T21:26:03.421Z,10.52
2023-01-21T21:31:05.326Z,7.38
2023-01-21T21:36:21.225Z,9.63
2023-01-21T21:41:43.687Z,7.78
2023-01-21T21:47:04.254Z,9.02
2023-01-21T21:52:06.247Z,6.97
2023-01-21T21:57:07.998Z,7.28
2023-01-21T22:02:11.649Z,7.50
2023-01-21T22:07:13.383Z,9.50
2023-01-21T22:12:15.477Z,9.75
2023-01-21T22:17:17.224Z,10.65
2023-01-21T22:22:18.989Z,10.57
2023-01-21T22:27:20.742Z,10.60
2023-01-21T22:32:22.558Z,11.68
2023-01-21T22:37:24.308Z,12.20
2023-01-21T22:42:26.075Z,11.52
2023-01-21T22:47:31.968Z,10.50
2023-01-21T22:52:33.699Z,11.38
2023-01-21T22:57:35.410Z,14.23
2023-01-21T23:02:37.171Z,10.15
2023-01-21T23:07:38.989Z,12.30
2023-01-21T23:12:40.781Z,12.90
2023-01-21T23:17:42.695Z,13.32
2023-01-21T23:22:44.946Z,8.88
2023-01-21T23:27:46.846Z,12.88
2023-01-21T23:32:48.630Z,12.00
2023-01-21T23:37:52.694Z,11.85
2023-01-21T23:42:54.587Z,11.00
2023-01-21T23:47:56.356Z,10.68
2023-01-21T23:52:58.226Z,10.30
2023-01-21T23:57:59.974Z,10.68
